createdAt,value
2022-11-14T00:01:14.164Z,37.17
2022-11-14T00:03:43.462Z,37.07
2022-11-14T00:06:11.374Z,38.23
2022-11-14T00:08:39.379Z,37.73
2022-11-14T00:11:07.312Z,36.37
2022-11-14T00:13:36.317Z,36.63
2022-11-14T00:16:04.458Z,35.13
2022-11-14T00:18:32.872Z,38.30
2022-11-14T00:21:02.366Z,35.27
2022-11-14T00:23:30.296Z,36.90
2022-11-14T00:25:58.261Z,36.80
2022-11-14T00:28:26.274Z,35.87
2022-11-14T00:30:54.305Z,39.73
2022-11-14T00:33:22.272Z,35.37
2022-11-14T00:35:54.513Z,36.37
2022-11-14T00:38:24.502Z,34.63
2022-11-14T00:40:52.461Z,37.43
2022-11-14T00:43:20.609Z,38.43
2022-11-14T00:45:48.985Z,36.90
2022-11-14T00:48:17.347Z,36.60
2022-11-14T00:50:45.567Z,37.90
2022-11-14T00:53:13.689Z,34.47
2022-11-14T00:55:43.508Z,37.27
2022-11-14T00:58:11.613Z,38.47
2022-11-14T01:00:40.135Z,35.20
2022-11-14T01:03:08.208Z,36.37
2022-11-14T01:05:41.031Z,37.60
2022-11-14T01:08:08.929Z,35.33
2022-11-14T01:10:42.083Z,36.13
2022-11-14T01:13:10.233Z,37.37
2022-11-14T01:15:41.073Z,35.60
2022-11-14T01:18:11.276Z,36.73
2022-11-14T01:20:40.345Z,38.83
2022-11-14T01:23:08.741Z,35.90
2022-11-14T01:25:36.804Z,37.63
2022-11-14T01:28:09.365Z,36.53
2022-11-14T01:30:37.454Z,40.13
2022-11-14T01:33:06.518Z,41.13
2022-11-14T01:35:35.588Z,37.00
2022-11-14T01:38:03.755Z,37.03
2022-11-14T01:40:32.309Z,37.47
2022-11-14T01:43:27.162Z,38.00
2022-11-14T01:45:58.196Z,37.67
2022-11-14T01:48:29.637Z,39.80
2022-11-14T01:51:03.561Z,37.87
2022-11-14T01:53:32.518Z,37.10
2022-11-14T01:56:03.799Z,39.27
2022-11-14T01:58:35.549Z,36.67
2022-11-14T02:01:04.391Z,36.73
2022-11-14T02:03:34.119Z,37.27
2022-11-14T02:06:03.231Z,39.73
2022-11-14T02:08:32.361Z,38.73
2022-11-14T02:11:00.538Z,39.57
2022-11-14T02:13:28.492Z,39.93
2022-11-14T02:15:58.192Z,40.83
2022-11-14T02:18:26.480Z,39.37
2022-11-14T02:20:55.863Z,41.90
2022-11-14T02:23:27.852Z,41.17
2022-11-14T02:25:56.500Z,42.80
2022-11-14T02:28:24.781Z,41.03
2022-11-14T02:30:52.897Z,40.27
2022-11-14T02:33:20.831Z,41.97
2022-11-14T02:35:48.797Z,43.37
2022-11-14T02:38:23.715Z,41.40
2022-11-14T02:40:51.652Z,41.70
2022-11-14T02:43:25.018Z,42.40
2022-11-14T02:45:53.130Z,43.13
2022-11-14T02:48:21.114Z,42.37
2022-11-14T02:50:50.675Z,42.00
2022-11-14T02:53:18.626Z,40.07
2022-11-14T02:55:48.023Z,39.97
2022-11-14T02:58:15.985Z,42.67
2022-11-14T03:01:13.604Z,40.70
2022-11-14T03:03:32.150Z,38.90
2022-11-14T03:06:00.962Z,40.07
2022-11-14T03:08:29.667Z,38.20
2022-11-14T03:11:05.933Z,40.20
2022-11-14T03:13:34.059Z,49.43
2022-11-14T03:16:07.409Z,42.43
2022-11-14T03:18:35.936Z,42.13
2022-11-14T03:21:07.696Z,42.00
2022-11-14T03:23:35.837Z,43.13
2022-11-14T03:26:07.442Z,43.87
2022-11-14T03:28:35.926Z,42.50
2022-11-14T03:31:04.400Z,40.40
2022-11-14T03:33:33.325Z,44.23
2022-11-14T03:36:01.393Z,40.87
2022-11-14T03:38:29.769Z,37.80
2022-11-14T03:40:59.762Z,43.70
2022-11-14T03:43:32.890Z,43.63
2022-11-14T03:46:01.378Z,40.87
2022-11-14T03:48:30.556Z,43.30
2022-11-14T03:50:59.183Z,40.10
2022-11-14T03:53:28.226Z,39.73
2022-11-14T03:55:56.313Z,42.77
2022-11-14T03:58:24.298Z,41.43
2022-11-14T04:00:55.799Z,42.50
2022-11-14T04:03:23.770Z,45.27
2022-11-14T04:05:51.982Z,45.33
2022-11-14T04:08:19.916Z,42.33
2022-11-14T04:10:48.988Z,42.53
2022-11-14T04:13:17.008Z,42.77
2022-11-14T04:15:44.959Z,43.20
2022-11-14T04:18:14.261Z,43.07
2022-11-14T04:20:42.292Z,43.97
2022-11-14T04:23:10.324Z,41.50
2022-11-14T04:25:38.361Z,43.67
2022-11-14T04:28:06.621Z,41.70
2022-11-14T04:30:35.026Z,42.17
2022-11-14T04:33:03.097Z,40.30
2022-11-14T04:35:32.450Z,42.40
2022-11-14T04:38:00.433Z,44.93
2022-11-14T04:40:28.398Z,43.50
2022-11-14T04:42:56.485Z,39.90
2022-11-14T04:45:24.669Z,39.10
2022-11-14T04:47:52.604Z,41.30
2022-11-14T04:50:20.537Z,42.37
2022-11-14T04:52:53.505Z,37.90
2022-11-14T04:55:21.427Z,41.13
2022-11-14T04:57:54.783Z,40.80
2022-11-14T05:00:25.254Z,38.80
2022-11-14T05:02:53.281Z,37.30
2022-11-14T05:05:21.205Z,42.47
2022-11-14T05:07:50.531Z,43.60
2022-11-14T05:10:18.642Z,44.93
2022-11-14T05:12:46.599Z,41.07
2022-11-14T05:15:14.732Z,42.67
2022-11-14T05:17:42.662Z,40.37
2022-11-14T05:20:12.036Z,41.90
2022-11-14T05:22:40.089Z,39.90
2022-11-14T05:25:10.565Z,36.50
2022-11-14T05:27:38.694Z,38.80
2022-11-14T05:30:07.741Z,40.63
2022-11-14T05:32:35.899Z,36.30
2022-11-14T05:35:04.317Z,40.70
2022-11-14T05:37:32.310Z,38.07
2022-11-14T05:40:00.346Z,35.03
2022-11-14T05:42:29.937Z,36.33
2022-11-14T05:44:57.901Z,36.43
2022-11-14T05:47:25.866Z,43.13
2022-11-14T05:49:53.873Z,35.17
2022-11-14T05:52:21.793Z,37.93
2022-11-14T05:54:49.710Z,36.57
2022-11-14T05:57:17.966Z,38.07
2022-11-14T05:59:47.262Z,38.23
2022-11-14T06:02:15.323Z,38.33
2022-11-14T06:04:43.395Z,35.07
2022-11-14T06:07:14.041Z,35.73
2022-11-14T06:09:44.187Z,36.67
2022-11-14T06:12:12.111Z,36.50
2022-11-14T06:14:40.019Z,47.80
2022-11-14T06:17:09.298Z,44.60
2022-11-14T06:19:37.296Z,42.10
2022-11-14T06:22:05.270Z,45.87
2022-11-14T06:24:33.323Z,40.30
2022-11-14T06:27:01.485Z,41.43
2022-11-14T06:29:34.324Z,35.67
2022-11-14T06:32:03.472Z,51.60
2022-11-14T06:34:34.482Z,37.87
2022-11-14T06:37:02.425Z,36.03
2022-11-14T06:39:30.341Z,35.07
2022-11-14T06:41:58.311Z,32.77
2022-11-14T06:44:30.707Z,36.77
2022-11-14T06:46:59.232Z,34.13
2022-11-14T06:49:27.734Z,41.33
2022-11-14T06:51:57.113Z,43.80
2022-11-14T06:54:25.071Z,37.07
2022-11-14T06:56:52.982Z,35.30
2022-11-14T06:59:21.054Z,35.17
2022-11-14T07:01:48.956Z,41.37
2022-11-14T07:04:17.030Z,35.47
2022-11-14T07:06:45.045Z,39.30
2022-11-14T07:09:14.584Z,39.70
2022-11-14T07:11:45.265Z,44.20
2022-11-14T07:14:13.313Z,38.77
2022-11-14T07:16:41.424Z,37.43
2022-11-14T07:19:10.350Z,39.13
2022-11-14T07:21:38.549Z,37.40
2022-11-14T07:24:07.086Z,38.23
2022-11-14T07:26:36.462Z,37.60
2022-11-14T07:29:04.432Z,36.27
2022-11-14T07:31:32.429Z,35.80
2022-11-14T07:34:00.346Z,32.50
2022-11-14T07:36:28.286Z,35.70
2022-11-14T07:38:56.213Z,36.43
2022-11-14T07:41:24.236Z,37.53
2022-11-14T07:43:53.549Z,36.93
2022-11-14T07:46:21.538Z,35.17
2022-11-14T07:48:49.947Z,38.50
2022-11-14T07:51:19.877Z,39.60
2022-11-14T07:53:48.202Z,36.07
2022-11-14T07:56:17.092Z,32.23
2022-11-14T07:58:45.090Z,35.13
2022-11-14T08:01:15.728Z,34.53
2022-11-14T08:03:46.099Z,32.73
2022-11-14T08:06:16.337Z,38.43
2022-11-14T08:08:44.664Z,32.73
2022-11-14T08:11:12.912Z,35.03
2022-11-14T08:13:40.878Z,35.33
2022-11-14T08:16:13.684Z,37.70
2022-11-14T08:18:43.650Z,34.10
2022-11-14T08:21:11.561Z,34.40
2022-11-14T08:23:39.709Z,37.90
2022-11-14T08:26:07.796Z,38.90
2022-11-14T08:28:35.883Z,33.17
2022-11-14T08:31:05.125Z,31.90
2022-11-14T08:33:33.398Z,35.23
2022-11-14T08:36:03.916Z,31.40
2022-11-14T08:38:33.069Z,32.00
2022-11-14T08:41:02.253Z,31.70
2022-11-14T08:43:30.373Z,32.43
2022-11-14T08:46:01.520Z,31.13
2022-11-14T08:48:30.471Z,30.63
2022-11-14T08:50:59.145Z,31.60
2022-11-14T08:53:28.437Z,30.83
2022-11-14T08:55:56.466Z,31.60
2022-11-14T08:58:24.693Z,30.00
2022-11-14T09:00:52.632Z,32.57
2022-11-14T09:03:20.648Z,32.47
2022-11-14T09:05:53.389Z,31.80
2022-11-14T09:08:21.729Z,29.03
2022-11-14T09:10:51.363Z,30.43
2022-11-14T09:13:19.413Z,30.80
2022-11-14T09:15:47.699Z,32.33
2022-11-14T09:18:16.234Z,32.57
2022-11-14T09:20:44.341Z,33.23
2022-11-14T09:23:12.615Z,33.93
2022-11-14T09:25:40.610Z,30.00
2022-11-14T09:28:10.830Z,32.97
2022-11-14T09:30:41.005Z,31.90
2022-11-14T09:33:11.979Z,31.97
2022-11-14T09:35:40.114Z,33.80
2022-11-14T09:38:10.698Z,33.27
2022-11-14T09:40:52.784Z,33.70
2022-11-14T09:43:40.171Z,31.70
2022-11-14T09:46:18.545Z,30.27
2022-11-14T09:48:46.565Z,34.43
2022-11-14T09:51:18.324Z,33.57
2022-11-14T09:53:52.895Z,33.10
2022-11-14T09:56:25.515Z,31.57
2022-11-14T09:58:56.690Z,34.00
2022-11-14T10:01:34.034Z,34.43
2022-11-14T10:04:13.142Z,34.63
2022-11-14T10:07:00.359Z,33.70
2022-11-14T10:09:51.175Z,35.60
2022-11-14T10:12:23.893Z,35.27
2022-11-14T10:15:14.208Z,33.50
2022-11-14T10:17:57.478Z,34.33
2022-11-14T10:20:32.688Z,34.90
2022-11-14T10:23:33.506Z,33.33
2022-11-14T10:26:11.826Z,36.03
2022-11-14T10:28:49.808Z,33.50
2022-11-14T10:31:28.626Z,34.60
2022-11-14T10:34:05.080Z,37.20
2022-11-14T10:36:48.145Z,37.60
2022-11-14T10:39:22.167Z,35.80
2022-11-14T10:41:59.849Z,34.67
2022-11-14T10:44:36.341Z,33.70
2022-11-14T10:47:08.278Z,38.40
2022-11-14T10:49:37.601Z,33.00
2022-11-14T10:52:12.183Z,38.30
2022-11-14T10:54:47.335Z,37.10
2022-11-14T10:57:18.186Z,34.73
2022-11-14T10:59:47.205Z,36.40
2022-11-14T11:02:15.799Z,34.17
2022-11-14T11:04:45.875Z,35.63
2022-11-14T11:07:41.092Z,36.67
2022-11-14T11:10:38.913Z,37.70
2022-11-14T11:13:07.084Z,35.80
2022-11-14T11:15:42.115Z,35.77
2022-11-14T11:18:27.213Z,34.60
2022-11-14T11:21:10.829Z,33.77
2022-11-14T11:23:52.901Z,32.20
2022-11-14T11:26:26.945Z,31.60
2022-11-14T11:29:04.862Z,30.90
2022-11-14T11:31:51.590Z,32.03
2022-11-14T11:34:24.419Z,30.00
2022-11-14T11:36:57.874Z,31.10
2022-11-14T11:39:29.368Z,34.30
2022-11-14T11:42:11.151Z,35.40
2022-11-14T11:44:44.837Z,33.77
2022-11-14T11:47:17.484Z,33.70
2022-11-14T11:49:53.010Z,32.07
2022-11-14T11:52:33.663Z,33.63
2022-11-14T11:55:14.474Z,33.40
2022-11-14T11:57:47.614Z,33.80
2022-11-14T12:00:19.283Z,34.20
2022-11-14T12:02:50.455Z,31.87
2022-11-14T12:05:26.915Z,32.87
2022-11-14T12:08:04.196Z,33.20
2022-11-14T12:10:37.471Z,33.40
2022-11-14T12:13:46.972Z,33.40
2022-11-14T12:16:26.149Z,32.43
2022-11-14T12:19:18.769Z,32.00
2022-11-14T12:22:18.439Z,32.70
2022-11-14T12:25:18.639Z,31.97
2022-11-14T12:28:08.208Z,34.47
2022-11-14T12:30:40.048Z,32.43
2022-11-14T12:33:11.914Z,32.43
2022-11-14T12:35:51.037Z,36.73
2022-11-14T12:38:20.991Z,32.70
2022-11-14T12:40:55.077Z,31.93
2022-11-14T12:43:36.994Z,35.37
2022-11-14T12:46:09.630Z,32.00
2022-11-14T12:48:39.791Z,34.23
2022-11-14T12:51:49.073Z,35.23
2022-11-14T12:54:45.812Z,33.13
2022-11-14T12:57:37.833Z,34.73
2022-11-14T13:00:08.946Z,31.80
2022-11-14T13:02:58.207Z,31.23
2022-11-14T13:05:48.560Z,33.07
2022-11-14T13:09:06.439Z,29.87
2022-11-14T13:11:55.191Z,30.60
2022-11-14T13:14:40.671Z,30.43
2022-11-14T13:17:41.195Z,31.50
2022-11-14T13:20:44.721Z,30.40
2022-11-14T13:23:58.570Z,30.60
2022-11-14T13:26:44.693Z,31.33
2022-11-14T13:29:48.407Z,31.53
2022-11-14T13:33:07.634Z,28.53
2022-11-14T13:36:08.460Z,29.47
2022-11-14T13:39:05.200Z,27.93
2022-11-14T13:42:10.257Z,28.27
2022-11-14T13:45:13.438Z,34.03
2022-11-14T13:48:14.383Z,30.37
2022-11-14T13:50:43.626Z,29.50
2022-11-14T13:53:15.470Z,29.73
2022-11-14T13:55:57.283Z,30.50
2022-11-14T13:58:51.986Z,30.50
2022-11-14T14:01:39.804Z,28.27
2022-11-14T14:04:29.511Z,30.27
2022-11-14T14:07:08.415Z,32.10
2022-11-14T14:09:45.925Z,32.70
2022-11-14T14:12:46.767Z,33.03
2022-11-14T14:15:24.113Z,32.50
2022-11-14T14:18:02.499Z,32.93
2022-11-14T14:20:41.102Z,34.80
2022-11-14T14:23:22.032Z,33.70
2022-11-14T14:26:01.232Z,33.67
2022-11-14T14:28:40.505Z,29.93
2022-11-14T14:31:16.268Z,29.13
2022-11-14T14:33:45.025Z,31.33
2022-11-14T14:36:21.926Z,28.63
2022-11-14T14:38:50.747Z,29.77
2022-11-14T14:41:21.001Z,30.63
2022-11-14T14:43:56.024Z,29.90
2022-11-14T14:46:30.877Z,31.30
2022-11-14T14:49:02.062Z,31.77
2022-11-14T14:51:34.782Z,30.27
2022-11-14T14:54:03.064Z,31.13
2022-11-14T14:56:31.282Z,31.47
2022-11-14T14:58:59.250Z,28.70
2022-11-14T15:01:35.164Z,30.80
2022-11-14T15:04:05.665Z,31.40
2022-11-14T15:06:35.827Z,32.00
2022-11-14T15:09:10.575Z,31.70
2022-11-14T15:11:42.733Z,31.07
2022-11-14T15:14:16.042Z,31.83
2022-11-14T15:16:50.181Z,29.63
2022-11-14T15:19:21.250Z,31.80
2022-11-14T15:22:03.994Z,29.57
2022-11-14T15:24:32.579Z,32.40
2022-11-14T15:27:05.506Z,29.40
2022-11-14T15:29:34.046Z,32.13
2022-11-14T15:32:05.301Z,28.73
2022-11-14T15:34:35.350Z,31.70
2022-11-14T15:37:20.665Z,29.70
2022-11-14T15:39:49.023Z,30.60
2022-11-14T15:42:20.982Z,29.53
2022-11-14T15:44:49.380Z,28.60
2022-11-14T15:47:24.184Z,30.97
2022-11-14T15:50:00.310Z,30.80
2022-11-14T15:52:33.489Z,30.13
2022-11-14T15:55:01.762Z,32.23
2022-11-14T15:57:30.557Z,45.30
2022-11-14T15:59:58.510Z,43.67
2022-11-14T16:02:31.861Z,32.30
2022-11-14T16:05:00.488Z,31.40
2022-11-14T16:07:29.237Z,31.83
2022-11-14T16:09:57.488Z,35.57
2022-11-14T16:12:25.497Z,42.53
2022-11-14T16:14:53.487Z,33.47
2022-11-14T16:17:21.494Z,39.57
2022-11-14T16:19:50.864Z,53.10
2022-11-14T16:22:19.487Z,50.60
2022-11-14T16:24:48.008Z,66.47
2022-11-14T16:27:16.389Z,59.80
2022-11-14T16:29:44.336Z,63.17
2022-11-14T16:32:12.508Z,50.30
2022-11-14T16:34:40.536Z,37.47
2022-11-14T16:37:13.853Z,36.47
2022-11-14T16:39:42.010Z,38.60
2022-11-14T16:42:12.053Z,33.40
2022-11-14T16:44:43.879Z,33.07
2022-11-14T16:47:15.500Z,32.03
2022-11-14T16:49:43.410Z,32.10
2022-11-14T16:52:13.079Z,31.87
2022-11-14T16:54:41.043Z,32.57
2022-11-14T16:57:09.040Z,34.07
2022-11-14T16:59:36.968Z,35.93
2022-11-14T17:02:05.179Z,33.20
2022-11-14T17:04:33.262Z,35.40
2022-11-14T17:07:01.258Z,36.90
2022-11-14T17:09:30.718Z,36.53
2022-11-14T17:11:58.642Z,34.20
2022-11-14T17:14:26.660Z,34.60
2022-11-14T17:16:54.703Z,32.87
2022-11-14T17:19:22.724Z,34.10
2022-11-14T17:21:51.538Z,35.40
2022-11-14T17:24:19.467Z,34.67
2022-11-14T17:26:49.125Z,37.60
2022-11-14T17:29:17.043Z,34.50
2022-11-14T17:31:47.225Z,33.50
2022-11-14T17:34:15.298Z,35.43
2022-11-14T17:36:43.387Z,35.57
2022-11-14T17:39:11.343Z,35.87
2022-11-14T17:41:39.724Z,36.77
2022-11-14T17:44:09.807Z,36.60
2022-11-14T17:46:38.253Z,37.83
2022-11-14T17:49:06.305Z,40.57
2022-11-14T17:51:34.294Z,36.37
2022-11-14T17:54:02.436Z,35.30
2022-11-14T17:56:30.354Z,35.00
2022-11-14T17:58:58.381Z,39.17
2022-11-14T18:01:30.139Z,40.00
2022-11-14T18:04:03.203Z,38.20
2022-11-14T18:06:34.734Z,37.87
2022-11-14T18:09:05.172Z,38.20
2022-11-14T18:11:33.847Z,38.97
2022-11-14T18:14:01.999Z,38.07
2022-11-14T18:16:50.501Z,37.73
2022-11-14T18:19:19.280Z,40.53
2022-11-14T18:21:53.286Z,39.33
2022-11-14T18:24:23.562Z,37.33
2022-11-14T18:26:52.285Z,39.40
2022-11-14T18:29:20.194Z,40.20
2022-11-14T18:31:49.703Z,42.13
2022-11-14T18:34:17.671Z,39.83
2022-11-14T18:36:45.729Z,40.03
2022-11-14T18:39:13.682Z,38.27
2022-11-14T18:41:41.713Z,41.27
2022-11-14T18:44:09.624Z,40.13
2022-11-14T18:46:38.181Z,43.37
2022-11-14T18:49:07.573Z,39.93
2022-11-14T18:51:41.886Z,43.13
2022-11-14T18:54:12.354Z,42.83
2022-11-14T18:56:40.613Z,41.50
2022-11-14T18:59:09.125Z,42.00
2022-11-14T19:01:37.182Z,43.43
2022-11-14T19:04:09.119Z,40.73
2022-11-14T19:06:39.816Z,46.37
2022-11-14T19:09:11.391Z,41.50
2022-11-14T19:11:57.175Z,42.40
2022-11-14T19:14:25.279Z,42.50
2022-11-14T19:16:53.388Z,43.53
2022-11-14T19:19:22.777Z,45.60
2022-11-14T19:21:51.248Z,49.30
2022-11-14T19:24:19.681Z,48.13
2022-11-14T19:26:47.842Z,45.57
2022-11-14T19:29:15.906Z,48.07
2022-11-14T19:31:44.403Z,52.23
2022-11-14T19:34:12.380Z,52.17
2022-11-14T19:39:30.124Z,50.83
2022-11-14T19:41:58.304Z,47.63
2022-11-14T19:44:26.266Z,50.63
2022-11-14T19:46:54.265Z,51.73
2022-11-14T19:49:22.215Z,53.83
2022-11-14T19:51:51.523Z,53.20
2022-11-14T19:54:19.548Z,49.20
2022-11-14T19:56:47.599Z,48.90
2022-11-14T19:59:20.097Z,49.90
2022-11-14T20:01:55.009Z,51.60
2022-11-14T20:04:23.143Z,50.93
2022-11-14T20:06:52.607Z,48.80
2022-11-14T20:09:20.726Z,53.03
2022-11-14T20:11:48.720Z,51.13
2022-11-14T20:14:17.232Z,49.23
2022-11-14T20:16:45.839Z,48.40
2022-11-14T20:19:14.664Z,47.00
2022-11-14T20:21:43.145Z,51.33
2022-11-14T20:24:17.525Z,52.30
2022-11-14T20:26:46.074Z,52.50
2022-11-14T20:29:14.062Z,50.87
2022-11-14T20:31:42.145Z,47.17
2022-11-14T20:34:12.352Z,49.17
2022-11-14T20:37:09.404Z,48.80
2022-11-14T20:39:30.521Z,50.10
2022-11-14T20:41:58.733Z,48.20
2022-11-14T20:44:26.695Z,48.90
2022-11-14T20:46:56.809Z,47.60
2022-11-14T20:49:24.802Z,46.00
2022-11-14T20:51:52.880Z,46.63
2022-11-14T20:54:20.825Z,46.93
2022-11-14T20:56:50.297Z,47.40
2022-11-14T20:59:18.245Z,45.60
2022-11-14T21:01:46.266Z,47.70
2022-11-14T21:04:14.302Z,47.80
2022-11-14T21:06:42.344Z,47.33
2022-11-14T21:09:10.866Z,45.07
2022-11-14T21:11:38.895Z,47.20
2022-11-14T21:14:09.083Z,46.60
2022-11-14T21:16:38.620Z,48.03
2022-11-14T21:19:07.635Z,46.90
2022-11-14T21:21:37.525Z,43.67
2022-11-14T21:24:05.989Z,45.10
2022-11-14T21:26:35.509Z,48.00
2022-11-14T21:29:07.171Z,42.67
2022-11-14T21:31:38.214Z,45.20
2022-11-14T21:34:08.421Z,47.03
2022-11-14T21:36:45.490Z,45.43
2022-11-14T21:39:16.517Z,51.70
2022-11-14T21:41:48.131Z,47.30
2022-11-14T21:44:17.653Z,46.83
2022-11-14T21:46:48.531Z,45.37
2022-11-14T21:49:16.907Z,44.57
2022-11-14T21:51:44.877Z,44.70
2022-11-14T21:54:12.805Z,41.30
2022-11-14T21:56:40.712Z,44.23
2022-11-14T21:59:14.611Z,47.57
2022-11-14T22:02:01.892Z,42.90
2022-11-14T22:04:31.507Z,43.17
2022-11-14T22:06:59.684Z,43.83
2022-11-14T22:09:28.414Z,44.87
2022-11-14T22:11:56.582Z,45.90
2022-11-14T22:14:24.544Z,43.83
2022-11-14T22:16:52.633Z,45.23
2022-11-14T22:19:20.635Z,47.43
2022-11-14T22:21:49.931Z,45.60
2022-11-14T22:24:17.885Z,44.40
2022-11-14T22:26:45.894Z,45.63
2022-11-14T22:29:13.809Z,45.93
2022-11-14T22:31:41.797Z,43.37
2022-11-14T22:34:09.721Z,41.87
2022-11-14T22:36:37.702Z,43.53
2022-11-14T22:39:07.127Z,43.03
2022-11-14T22:41:35.143Z,43.17
2022-11-14T22:44:03.316Z,41.27
2022-11-14T22:46:31.292Z,43.80
2022-11-14T22:48:59.368Z,45.00
2022-11-14T22:51:28.662Z,42.40
2022-11-14T22:53:58.560Z,42.20
2022-11-14T22:56:29.726Z,45.97
2022-11-14T22:58:59.382Z,45.20
2022-11-14T23:01:29.556Z,44.33
2022-11-14T23:04:00.019Z,42.37
2022-11-14T23:06:28.761Z,44.80
2022-11-14T23:08:57.073Z,42.43
2022-11-14T23:11:28.762Z,41.10
2022-11-14T23:13:58.152Z,40.43
2022-11-14T23:16:27.574Z,40.47
2022-11-14T23:18:57.345Z,43.70
2022-11-14T23:21:26.854Z,45.47
2022-11-14T23:23:55.689Z,38.70
2022-11-14T23:26:24.628Z,41.87
2022-11-14T23:28:55.013Z,40.93
2022-11-14T23:31:23.849Z,39.20
2022-11-14T23:33:54.261Z,41.60
2022-11-14T23:36:22.571Z,41.53
2022-11-14T23:38:52.915Z,38.80
2022-11-14T23:41:22.936Z,37.50
2022-11-14T23:43:50.918Z,36.80
2022-11-14T23:46:20.198Z,38.63
2022-11-14T23:48:48.097Z,34.87
2022-11-14T23:51:17.467Z,37.07
2022-11-14T23:53:46.763Z,33.87
2022-11-14T23:56:15.496Z,36.40
2022-11-14T23:58:43.736Z,38.27
